sensor_id;sensor_type;location;lat;lon;timestamp;temperature;humidity
24682;DHT22;12802;53.390;-2.328;2023-05-19T00:01:08;11.80;99.90
24682;DHT22;12802;53.390;-2.328;2023-05-19T00:03:34;11.80;99.90
24682;DHT22;12802;53.390;-2.328;2023-05-19T00:06:05;11.80;99.90
24682;DHT22;12802;53.390;-2.328;2023-05-19T00:08:31;11.70;99.90
24682;DHT22;12802;53.390;-2.328;2023-05-19T00:10:58;11.70;99.90
24682;DHT22;12802;53.390;-2.328;2023-05-19T00:13:23;11.70;99.90
24682;DHT22;12802;53.390;-2.328;2023-05-19T00:15:51;11.70;99.90
24682;DHT22;12802;53.390;-2.328;2023-05-19T00:18:17;11.70;99.90
24682;DHT22;12802;53.390;-2.328;2023-05-19T00:20:46;11.70;99.90
24682;DHT22;12802;53.390;-2.328;2023-05-19T00:23:12;11.70;99.90
24682;DHT22;12802;53.390;-2.328;2023-05-19T00:25:37;11.70;99.90
24682;DHT22;12802;53.390;-2.328;2023-05-19T00:28:03;11.80;99.90
24682;DHT22;12802;53.390;-2.328;2023-05-19T00:30:29;11.70;99.90
24682;DHT22;12802;53.390;-2.328;2023-05-19T00:32:55;11.70;99.90
24682;DHT22;12802;53.390;-2.328;2023-05-19T00:35:21;11.70;99.90
24682;DHT22;12802;53.390;-2.328;2023-05-19T00:37:47;11.60;99.90
24682;DHT22;12802;53.390;-2.328;2023-05-19T00:40:13;11.60;99.90
24682;DHT22;12802;53.390;-2.328;2023-05-19T00:42:39;11.70;99.90
24682;DHT22;12802;53.390;-2.328;2023-05-19T00:45:05;11.70;99.90
24682;DHT22;12802;53.390;-2.328;2023-05-19T00:47:31;11.70;99.90
24682;DHT22;12802;53.390;-2.328;2023-05-19T00:49:57;11.70;99.90
24682;DHT22;12802;53.390;-2.328;2023-05-19T00:52:22;11.70;99.90
24682;DHT22;12802;53.390;-2.328;2023-05-19T00:54:48;11.70;99.90
24682;DHT22;12802;53.390;-2.328;2023-05-19T00:57:14;11.60;99.90
24682;DHT22;12802;53.390;-2.328;2023-05-19T00:59:39;11.60;99.90
24682;DHT22;12802;53.390;-2.328;2023-05-19T01:02:05;11.70;99.90
24682;DHT22;12802;53.390;-2.328;2023-05-19T01:04:31;11.60;99.90
24682;DHT22;12802;53.390;-2.328;2023-05-19T01:06:59;11.60;99.90
24682;DHT22;12802;53.390;-2.328;2023-05-19T01:09:25;11.60;99.90
24682;DHT22;12802;53.390;-2.328;2023-05-19T01:11:51;11.60;99.90
24682;DHT22;12802;53.390;-2.328;2023-05-19T01:14:16;11.60;99.90
24682;DHT22;12802;53.390;-2.328;2023-05-19T01:16:46;11.50;99.90
24682;DHT22;12802;53.390;-2.328;2023-05-19T01:32:31;11.30;99.90
24682;DHT22;12802;53.390;-2.328;2023-05-19T01:34:57;11.30;99.90
24682;DHT22;12802;53.390;-2.328;2023-05-19T01:37:23;11.20;99.90
24682;DHT22;12802;53.390;-2.328;2023-05-19T01:39:50;11.20;99.90
24682;DHT22;12802;53.390;-2.328;2023-05-19T01:42:16;11.10;99.90
24682;DHT22;12802;53.390;-2.328;2023-05-19T01:44:42;11.00;99.90
24682;DHT22;12802;53.390;-2.328;2023-05-19T01:47:08;11.00;99.90
24682;DHT22;12802;53.390;-2.328;2023-05-19T01:49:35;11.00;99.90
24682;DHT22;12802;53.390;-2.328;2023-05-19T01:52:00;10.90;99.90
24682;DHT22;12802;53.390;-2.328;2023-05-19T01:54:26;10.90;99.90
24682;DHT22;12802;53.390;-2.328;2023-05-19T01:56:59;11.00;99.90
24682;DHT22;12802;53.390;-2.328;2023-05-19T02:02:14;10.90;99.90
24682;DHT22;12802;53.390;-2.328;2023-05-19T02:04:43;10.90;99.90
24682;DHT22;12802;53.390;-2.328;2023-05-19T02:07:14;10.90;99.90
24682;DHT22;12802;53.390;-2.328;2023-05-19T02:09:51;10.80;99.90
24682;DHT22;12802;53.390;-2.328;2023-05-19T02:12:19;10.80;99.90
24682;DHT22;12802;53.390;-2.328;2023-05-19T02:14:54;10.80;99.90
24682;DHT22;12802;53.390;-2.328;2023-05-19T02:17:21;10.80;99.90
24682;DHT22;12802;53.390;-2.328;2023-05-19T02:19:47;10.70;99.90
24682;DHT22;12802;53.390;-2.328;2023-05-19T02:22:13;10.70;99.90
24682;DHT22;12802;53.390;-2.328;2023-05-19T02:24:39;10.60;99.90
24682;DHT22;12802;53.390;-2.328;2023-05-19T02:27:05;10.60;99.90
24682;DHT22;12802;53.390;-2.328;2023-05-19T02:29:31;10.60;99.90
24682;DHT22;12802;53.390;-2.328;2023-05-19T02:31:57;10.50;99.90
24682;DHT22;12802;53.390;-2.328;2023-05-19T02:34:22;10.60;99.90
24682;DHT22;12802;53.390;-2.328;2023-05-19T02:36:48;10.50;99.90
24682;DHT22;12802;53.390;-2.328;2023-05-19T02:39:14;10.50;99.90
24682;DHT22;12802;53.390;-2.328;2023-05-19T02:41:40;10.50;99.90
24682;DHT22;12802;53.390;-2.328;2023-05-19T02:44:06;10.50;99.90
24682;DHT22;12802;53.390;-2.328;2023-05-19T02:46:32;10.50;99.90
24682;DHT22;12802;53.390;-2.328;2023-05-19T02:48:58;10.50;99.90
24682;DHT22;12802;53.390;-2.328;2023-05-19T02:51:23;10.40;99.90
24682;DHT22;12802;53.390;-2.328;2023-05-19T02:53:49;10.40;99.90
24682;DHT22;12802;53.390;-2.328;2023-05-19T02:56:15;10.40;99.90
24682;DHT22;12802;53.390;-2.328;2023-05-19T02:58:40;10.40;99.90
24682;DHT22;12802;53.390;-2.328;2023-05-19T03:01:08;10.40;99.90
24682;DHT22;12802;53.390;-2.328;2023-05-19T03:03:33;10.40;99.90
24682;DHT22;12802;53.390;-2.328;2023-05-19T03:05:59;10.40;99.90
24682;DHT22;12802;53.390;-2.328;2023-05-19T03:08:26;10.40;99.90
24682;DHT22;12802;53.390;-2.328;2023-05-19T03:10:52;10.40;99.90
24682;DHT22;12802;53.390;-2.328;2023-05-19T03:13:17;10.40;99.90
24682;DHT22;12802;53.390;-2.328;2023-05-19T03:15:43;10.40;99.90
24682;DHT22;12802;53.390;-2.328;2023-05-19T03:18:09;10.40;99.90
24682;DHT22;12802;53.390;-2.328;2023-05-19T03:20:37;10.30;99.90
24682;DHT22;12802;53.390;-2.328;2023-05-19T03:23:02;10.20;99.90
24682;DHT22;12802;53.390;-2.328;2023-05-19T03:25:29;10.20;99.90
24682;DHT22;12802;53.390;-2.328;2023-05-19T03:27:54;10.30;99.90
24682;DHT22;12802;53.390;-2.328;2023-05-19T03:30:20;10.30;99.90
24682;DHT22;12802;53.390;-2.328;2023-05-19T03:33:09;10.20;99.90
24682;DHT22;12802;53.390;-2.328;2023-05-19T03:35:35;10.20;99.90
24682;DHT22;12802;53.390;-2.328;2023-05-19T03:38:01;10.20;99.90
24682;DHT22;12802;53.390;-2.328;2023-05-19T03:40:27;10.20;99.90
24682;DHT22;12802;53.390;-2.328;2023-05-19T03:43:00;10.20;99.90
24682;DHT22;12802;53.390;-2.328;2023-05-19T03:45:26;10.20;99.90
24682;DHT22;12802;53.390;-2.328;2023-05-19T03:47:52;10.20;99.90
24682;DHT22;12802;53.390;-2.328;2023-05-19T03:50:38;10.10;99.90
24682;DHT22;12802;53.390;-2.328;2023-05-19T03:53:13;10.20;99.90
24682;DHT22;12802;53.390;-2.328;2023-05-19T03:55:40;10.20;99.90
24682;DHT22;12802;53.390;-2.328;2023-05-19T03:58:05;10.20;99.90
24682;DHT22;12802;53.390;-2.328;2023-05-19T04:00:31;10.20;99.90
24682;DHT22;12802;53.390;-2.328;2023-05-19T04:02:56;10.20;99.90
24682;DHT22;12802;53.390;-2.328;2023-05-19T04:05:22;10.20;99.90
24682;DHT22;12802;53.390;-2.328;2023-05-19T04:07:48;10.20;99.90
24682;DHT22;12802;53.390;-2.328;2023-05-19T04:10:14;10.10;99.90
24682;DHT22;12802;53.390;-2.328;2023-05-19T04:12:39;10.10;99.90
24682;DHT22;12802;53.390;-2.328;2023-05-19T04:15:05;10.20;99.90
24682;DHT22;12802;53.390;-2.328;2023-05-19T04:17:31;10.20;99.90
24682;DHT22;12802;53.390;-2.328;2023-05-19T04:19:57;10.30;99.90
24682;DHT22;12802;53.390;-2.328;2023-05-19T04:22:22;10.40;99.90
24682;DHT22;12802;53.390;-2.328;2023-05-19T04:24:48;10.40;99.90
24682;DHT22;12802;53.390;-2.328;2023-05-19T04:27:15;10.40;99.90
24682;DHT22;12802;53.390;-2.328;2023-05-19T04:29:42;10.40;99.90
24682;DHT22;12802;53.390;-2.328;2023-05-19T04:32:08;10.40;99.90
24682;DHT22;12802;53.390;-2.328;2023-05-19T04:34:35;10.40;99.90
24682;DHT22;12802;53.390;-2.328;2023-05-19T04:37:05;10.50;99.90
24682;DHT22;12802;53.390;-2.328;2023-05-19T04:39:31;10.50;99.90
24682;DHT22;12802;53.390;-2.328;2023-05-19T04:41:58;10.60;99.90
24682;DHT22;12802;53.390;-2.328;2023-05-19T04:44:24;10.50;99.90
24682;DHT22;12802;53.390;-2.328;2023-05-19T04:46:50;10.50;99.90
24682;DHT22;12802;53.390;-2.328;2023-05-19T04:49:19;10.60;99.90
24682;DHT22;12802;53.390;-2.328;2023-05-19T04:51:48;10.60;99.90
24682;DHT22;12802;53.390;-2.328;2023-05-19T04:54:18;10.60;99.90
24682;DHT22;12802;53.390;-2.328;2023-05-19T04:56:44;10.60;99.90
24682;DHT22;12802;53.390;-2.328;2023-05-19T04:59:10;10.70;99.90
24682;DHT22;12802;53.390;-2.328;2023-05-19T05:01:36;10.70;99.90
24682;DHT22;12802;53.390;-2.328;2023-05-19T05:04:05;10.70;99.90
24682;DHT22;12802;53.390;-2.328;2023-05-19T05:06:31;10.80;99.90
24682;DHT22;12802;53.390;-2.328;2023-05-19T05:08:57;10.80;99.90
24682;DHT22;12802;53.390;-2.328;2023-05-19T05:11:24;10.70;99.90
24682;DHT22;12802;53.390;-2.328;2023-05-19T05:13:51;10.80;99.90
24682;DHT22;12802;53.390;-2.328;2023-05-19T05:16:17;10.90;99.90
24682;DHT22;12802;53.390;-2.328;2023-05-19T05:18:43;10.90;99.90
24682;DHT22;12802;53.390;-2.328;2023-05-19T05:21:09;10.90;99.90
24682;DHT22;12802;53.390;-2.328;2023-05-19T05:23:35;11.00;99.90
24682;DHT22;12802;53.390;-2.328;2023-05-19T05:26:03;11.00;99.90
24682;DHT22;12802;53.390;-2.328;2023-05-19T05:28:33;11.10;99.90
24682;DHT22;12802;53.390;-2.328;2023-05-19T05:30:58;11.20;99.90
24682;DHT22;12802;53.390;-2.328;2023-05-19T05:33:24;11.20;99.90
24682;DHT22;12802;53.390;-2.328;2023-05-19T05:35:51;11.30;99.90
24682;DHT22;12802;53.390;-2.328;2023-05-19T05:38:17;11.30;99.90
24682;DHT22;12802;53.390;-2.328;2023-05-19T05:40:43;11.30;99.90
24682;DHT22;12802;53.390;-2.328;2023-05-19T05:43:08;11.30;99.90
24682;DHT22;12802;53.390;-2.328;2023-05-19T05:45:40;11.30;99.90
24682;DHT22;12802;53.390;-2.328;2023-05-19T05:48:06;11.30;99.90
24682;DHT22;12802;53.390;-2.328;2023-05-19T05:50:32;11.40;99.90
24682;DHT22;12802;53.390;-2.328;2023-05-19T05:52:58;11.40;99.90
24682;DHT22;12802;53.390;-2.328;2023-05-19T05:55:25;11.50;99.90
24682;DHT22;12802;53.390;-2.328;2023-05-19T05:57:51;11.50;99.90
24682;DHT22;12802;53.390;-2.328;2023-05-19T06:00:17;11.60;99.90
24682;DHT22;12802;53.390;-2.328;2023-05-19T06:02:50;11.60;99.90
24682;DHT22;12802;53.390;-2.328;2023-05-19T06:05:16;11.70;99.90
24682;DHT22;12802;53.390;-2.328;2023-05-19T06:07:43;11.70;99.90
24682;DHT22;12802;53.390;-2.328;2023-05-19T06:10:11;11.70;99.90
24682;DHT22;12802;53.390;-2.328;2023-05-19T06:12:37;11.70;99.90
24682;DHT22;12802;53.390;-2.328;2023-05-19T06:15:07;11.70;99.90
24682;DHT22;12802;53.390;-2.328;2023-05-19T06:17:47;11.70;99.90
24682;DHT22;12802;53.390;-2.328;2023-05-19T06:20:13;11.70;99.90
24682;DHT22;12802;53.390;-2.328;2023-05-19T06:22:39;11.60;99.90
24682;DHT22;12802;53.390;-2.328;2023-05-19T06:25:05;11.60;99.90
24682;DHT22;12802;53.390;-2.328;2023-05-19T06:27:33;11.70;99.90
24682;DHT22;12802;53.390;-2.328;2023-05-19T06:29:59;11.70;99.90
24682;DHT22;12802;53.390;-2.328;2023-05-19T06:32:26;11.60;99.90
24682;DHT22;12802;53.390;-2.328;2023-05-19T06:34:54;11.40;99.90
24682;DHT22;12802;53.390;-2.328;2023-05-19T06:37:21;11.30;99.90
24682;DHT22;12802;53.390;-2.328;2023-05-19T06:39:51;11.30;99.90
24682;DHT22;12802;53.390;-2.328;2023-05-19T06:42:20;11.30;99.90
24682;DHT22;12802;53.390;-2.328;2023-05-19T06:45:15;11.30;99.90
24682;DHT22;12802;53.390;-2.328;2023-05-19T06:47:47;11.40;99.90
24682;DHT22;12802;53.390;-2.328;2023-05-19T06:50:13;11.40;99.90
24682;DHT22;12802;53.390;-2.328;2023-05-19T06:52:41;11.40;99.90
24682;DHT22;12802;53.390;-2.328;2023-05-19T06:55:07;11.30;99.90
24682;DHT22;12802;53.390;-2.328;2023-05-19T06:57:34;11.40;99.90
24682;DHT22;12802;53.390;-2.328;2023-05-19T07:00:00;11.40;99.90
24682;DHT22;12802;53.390;-2.328;2023-05-19T07:02:26;11.50;99.90
24682;DHT22;12802;53.390;-2.328;2023-05-19T07:04:52;11.60;99.90
24682;DHT22;12802;53.390;-2.328;2023-05-19T07:07:19;11.60;99.90
24682;DHT22;12802;53.390;-2.328;2023-05-19T07:09:45;11.70;99.90
24682;DHT22;12802;53.390;-2.328;2023-05-19T07:12:12;11.70;99.90
24682;DHT22;12802;53.390;-2.328;2023-05-19T07:14:37;11.70;99.90
24682;DHT22;12802;53.390;-2.328;2023-05-19T07:17:03;11.70;99.90
24682;DHT22;12802;53.390;-2.328;2023-05-19T07:19:30;11.70;99.90
24682;DHT22;12802;53.390;-2.328;2023-05-19T07:21:55;11.70;99.90
24682;DHT22;12802;53.390;-2.328;2023-05-19T07:24:21;11.70;99.90
24682;DHT22;12802;53.390;-2.328;2023-05-19T07:26:47;11.80;99.90
24682;DHT22;12802;53.390;-2.328;2023-05-19T07:29:12;11.80;99.90
24682;DHT22;12802;53.390;-2.328;2023-05-19T07:31:38;11.80;99.90
24682;DHT22;12802;53.390;-2.328;2023-05-19T07:34:04;11.80;99.90
24682;DHT22;12802;53.390;-2.328;2023-05-19T07:36:29;11.90;99.90
24682;DHT22;12802;53.390;-2.328;2023-05-19T07:38:55;11.90;99.90
24682;DHT22;12802;53.390;-2.328;2023-05-19T07:41:21;11.90;99.90
24682;DHT22;12802;53.390;-2.328;2023-05-19T07:43:47;11.90;99.90
24682;DHT22;12802;53.390;-2.328;2023-05-19T07:46:13;11.90;99.90
24682;DHT22;12802;53.390;-2.328;2023-05-19T07:48:39;11.90;99.90
24682;DHT22;12802;53.390;-2.328;2023-05-19T07:51:04;11.90;99.90
24682;DHT22;12802;53.390;-2.328;2023-05-19T07:53:30;11.90;99.90
24682;DHT22;12802;53.390;-2.328;2023-05-19T07:55:55;11.80;99.90
24682;DHT22;12802;53.390;-2.328;2023-05-19T07:58:21;11.80;99.90
24682;DHT22;12802;53.390;-2.328;2023-05-19T08:00:47;11.90;99.90
24682;DHT22;12802;53.390;-2.328;2023-05-19T08:03:12;11.90;99.90
24682;DHT22;12802;53.390;-2.328;2023-05-19T08:05:41;11.90;99.90
24682;DHT22;12802;53.390;-2.328;2023-05-19T08:08:07;11.90;99.90
24682;DHT22;12802;53.390;-2.328;2023-05-19T08:10:33;11.80;99.90
24682;DHT22;12802;53.390;-2.328;2023-05-19T08:12:59;11.80;99.90
24682;DHT22;12802;53.390;-2.328;2023-05-19T08:15:25;11.90;99.90
24682;DHT22;12802;53.390;-2.328;2023-05-19T08:17:50;11.80;99.90
24682;DHT22;12802;53.390;-2.328;2023-05-19T08:20:16;11.90;99.90
24682;DHT22;12802;53.390;-2.328;2023-05-19T08:22:42;11.80;99.90
24682;DHT22;12802;53.390;-2.328;2023-05-19T08:25:07;11.80;99.90
24682;DHT22;12802;53.390;-2.328;2023-05-19T08:27:33;11.90;99.90
24682;DHT22;12802;53.390;-2.328;2023-05-19T08:29:59;12.00;99.90
24682;DHT22;12802;53.390;-2.328;2023-05-19T08:32:25;12.10;99.90
24682;DHT22;12802;53.390;-2.328;2023-05-19T08:34:50;12.10;99.90
24682;DHT22;12802;53.390;-2.328;2023-05-19T08:37:16;12.20;99.90
24682;DHT22;12802;53.390;-2.328;2023-05-19T08:39:42;12.10;99.90
24682;DHT22;12802;53.390;-2.328;2023-05-19T08:42:07;12.10;99.90
24682;DHT22;12802;53.390;-2.328;2023-05-19T08:44:37;12.30;99.90
24682;DHT22;12802;53.390;-2.328;2023-05-19T08:47:04;12.30;99.90
24682;DHT22;12802;53.390;-2.328;2023-05-19T08:49:31;12.30;99.90
24682;DHT22;12802;53.390;-2.328;2023-05-19T08:51:59;12.40;99.90
24682;DHT22;12802;53.390;-2.328;2023-05-19T08:54:29;12.60;99.90
24682;DHT22;12802;53.390;-2.328;2023-05-19T08:56:58;12.70;99.90
24682;DHT22;12802;53.390;-2.328;2023-05-19T08:59:24;12.60;99.90
24682;DHT22;12802;53.390;-2.328;2023-05-19T09:01:50;12.70;99.90
24682;DHT22;12802;53.390;-2.328;2023-05-19T09:04:16;12.70;99.90
24682;DHT22;12802;53.390;-2.328;2023-05-19T09:06:41;12.70;99.90
24682;DHT22;12802;53.390;-2.328;2023-05-19T09:09:09;12.80;99.90
24682;DHT22;12802;53.390;-2.328;2023-05-19T09:11:35;12.80;99.90
24682;DHT22;12802;53.390;-2.328;2023-05-19T09:14:02;12.90;99.90
24682;DHT22;12802;53.390;-2.328;2023-05-19T09:16:28;12.90;99.90
24682;DHT22;12802;53.390;-2.328;2023-05-19T09:18:54;12.90;99.90
24682;DHT22;12802;53.390;-2.328;2023-05-19T09:21:25;13.00;99.90
24682;DHT22;12802;53.390;-2.328;2023-05-19T09:23:52;13.10;99.90
24682;DHT22;12802;53.390;-2.328;2023-05-19T09:26:20;13.20;99.90
24682;DHT22;12802;53.390;-2.328;2023-05-19T09:28:48;13.40;99.90
24682;DHT22;12802;53.390;-2.328;2023-05-19T09:31:13;13.60;99.90
24682;DHT22;12802;53.390;-2.328;2023-05-19T09:33:40;13.60;99.90
24682;DHT22;12802;53.390;-2.328;2023-05-19T09:36:07;13.60;99.90
24682;DHT22;12802;53.390;-2.328;2023-05-19T09:38:36;13.60;99.90
24682;DHT22;12802;53.390;-2.328;2023-05-19T09:41:03;13.70;99.90
24682;DHT22;12802;53.390;-2.328;2023-05-19T09:43:29;13.70;99.90
24682;DHT22;12802;53.390;-2.328;2023-05-19T09:46:02;13.70;99.90
24682;DHT22;12802;53.390;-2.328;2023-05-19T09:48:28;13.70;99.90
24682;DHT22;12802;53.390;-2.328;2023-05-19T09:50:54;13.70;99.90
24682;DHT22;12802;53.390;-2.328;2023-05-19T09:53:21;13.60;99.90
24682;DHT22;12802;53.390;-2.328;2023-05-19T09:55:47;13.70;99.90
24682;DHT22;12802;53.390;-2.328;2023-05-19T09:58:15;13.90;99.90
24682;DHT22;12802;53.390;-2.328;2023-05-19T10:00:41;14.10;99.90
24682;DHT22;12802;53.390;-2.328;2023-05-19T10:03:06;14.10;99.90
24682;DHT22;12802;53.390;-2.328;2023-05-19T10:05:33;14.00;99.90
24682;DHT22;12802;53.390;-2.328;2023-05-19T10:07:59;14.20;99.90
24682;DHT22;12802;53.390;-2.328;2023-05-19T10:10:27;14.20;99.90
24682;DHT22;12802;53.390;-2.328;2023-05-19T10:12:53;14.30;99.90
24682;DHT22;12802;53.390;-2.328;2023-05-19T10:15:19;14.50;99.90
24682;DHT22;12802;53.390;-2.328;2023-05-19T10:17:45;14.50;99.90
24682;DHT22;12802;53.390;-2.328;2023-05-19T10:20:11;14.50;99.90
24682;DHT22;12802;53.390;-2.328;2023-05-19T10:22:38;14.50;99.90
24682;DHT22;12802;53.390;-2.328;2023-05-19T10:25:04;14.50;99.90
24682;DHT22;12802;53.390;-2.328;2023-05-19T10:27:31;14.50;99.90
24682;DHT22;12802;53.390;-2.328;2023-05-19T10:29:59;14.60;99.90
24682;DHT22;12802;53.390;-2.328;2023-05-19T10:32:27;14.60;99.90
24682;DHT22;12802;53.390;-2.328;2023-05-19T10:35:09;14.60;99.90
24682;DHT22;12802;53.390;-2.328;2023-05-19T10:40:07;14.80;99.90
24682;DHT22;12802;53.390;-2.328;2023-05-19T10:42:36;15.20;99.90
24682;DHT22;12802;53.390;-2.328;2023-05-19T10:45:16;15.30;99.90
24682;DHT22;12802;53.390;-2.328;2023-05-19T10:47:43;15.60;99.90
24682;DHT22;12802;53.390;-2.328;2023-05-19T10:50:09;15.90;99.90
24682;DHT22;12802;53.390;-2.328;2023-05-19T10:52:35;16.10;99.90
24682;DHT22;12802;53.390;-2.328;2023-05-19T10:55:01;16.00;99.90
24682;DHT22;12802;53.390;-2.328;2023-05-19T10:57:27;16.10;99.90
24682;DHT22;12802;53.390;-2.328;2023-05-19T10:59:56;16.20;99.90
24682;DHT22;12802;53.390;-2.328;2023-05-19T11:02:41;16.40;99.90
24682;DHT22;12802;53.390;-2.328;2023-05-19T11:05:13;16.60;99.90
24682;DHT22;12802;53.390;-2.328;2023-05-19T11:07:41;16.70;99.90
24682;DHT22;12802;53.390;-2.328;2023-05-19T11:10:07;16.70;99.90
24682;DHT22;12802;53.390;-2.328;2023-05-19T11:12:40;16.90;99.90
24682;DHT22;12802;53.390;-2.328;2023-05-19T11:15:10;17.00;99.90
24682;DHT22;12802;53.390;-2.328;2023-05-19T11:17:36;16.90;99.90
24682;DHT22;12802;53.390;-2.328;2023-05-19T11:20:02;16.80;99.90
24682;DHT22;12802;53.390;-2.328;2023-05-19T11:22:29;16.80;99.90
24682;DHT22;12802;53.390;-2.328;2023-05-19T11:24:58;16.60;99.90
24682;DHT22;12802;53.390;-2.328;2023-05-19T11:27:34;16.50;99.90
24682;DHT22;12802;53.390;-2.328;2023-05-19T11:32:36;16.70;99.90
24682;DHT22;12802;53.390;-2.328;2023-05-19T11:35:07;16.70;99.90
24682;DHT22;12802;53.390;-2.328;2023-05-19T11:37:33;16.60;99.90
24682;DHT22;12802;53.390;-2.328;2023-05-19T11:40:05;16.40;99.90
24682;DHT22;12802;53.390;-2.328;2023-05-19T11:42:31;16.30;99.90
24682;DHT22;12802;53.390;-2.328;2023-05-19T11:44:58;16.20;99.90
24682;DHT22;12802;53.390;-2.328;2023-05-19T11:47:23;16.00;99.90
24682;DHT22;12802;53.390;-2.328;2023-05-19T11:49:50;15.80;99.90
24682;DHT22;12802;53.390;-2.328;2023-05-19T11:52:25;15.70;99.90
24682;DHT22;12802;53.390;-2.328;2023-05-19T11:54:53;15.70;99.90
24682;DHT22;12802;53.390;-2.328;2023-05-19T11:57:21;15.70;99.90
24682;DHT22;12802;53.390;-2.328;2023-05-19T11:59:46;15.40;99.90
24682;DHT22;12802;53.390;-2.328;2023-05-19T12:02:23;15.30;99.90
24682;DHT22;12802;53.390;-2.328;2023-05-19T12:04:50;15.00;99.90
24682;DHT22;12802;53.390;-2.328;2023-05-19T12:07:17;14.90;99.90
24682;DHT22;12802;53.390;-2.328;2023-05-19T12:09:43;14.80;99.90
24682;DHT22;12802;53.390;-2.328;2023-05-19T12:12:12;14.70;99.90
24682;DHT22;12802;53.390;-2.328;2023-05-19T12:14:38;14.70;99.90
24682;DHT22;12802;53.390;-2.328;2023-05-19T12:17:13;14.70;99.90
24682;DHT22;12802;53.390;-2.328;2023-05-19T12:19:39;14.80;99.90
24682;DHT22;12802;53.390;-2.328;2023-05-19T12:22:06;14.80;99.90
24682;DHT22;12802;53.390;-2.328;2023-05-19T12:24:32;14.80;99.90
24682;DHT22;12802;53.390;-2.328;2023-05-19T12:27:11;14.90;99.90
24682;DHT22;12802;53.390;-2.328;2023-05-19T12:29:38;15.00;99.90
24682;DHT22;12802;53.390;-2.328;2023-05-19T12:32:05;15.00;99.90
24682;DHT22;12802;53.390;-2.328;2023-05-19T12:34:34;15.20;99.90
24682;DHT22;12802;53.390;-2.328;2023-05-19T12:37:00;15.60;99.90
24682;DHT22;12802;53.390;-2.328;2023-05-19T12:39:27;16.20;99.90
24682;DHT22;12802;53.390;-2.328;2023-05-19T12:41:59;16.50;99.90
24682;DHT22;12802;53.390;-2.328;2023-05-19T12:44:25;16.40;99.90
24682;DHT22;12802;53.390;-2.328;2023-05-19T12:46:52;16.20;99.90
24682;DHT22;12802;53.390;-2.328;2023-05-19T12:49:17;16.00;99.90
24682;DHT22;12802;53.390;-2.328;2023-05-19T12:51:50;15.80;99.90
24682;DHT22;12802;53.390;-2.328;2023-05-19T12:54:18;15.70;99.90
24682;DHT22;12802;53.390;-2.328;2023-05-19T12:56:50;15.70;99.90
24682;DHT22;12802;53.390;-2.328;2023-05-19T12:59:22;15.60;99.90
24682;DHT22;12802;53.390;-2.328;2023-05-19T13:01:55;15.70;99.90
24682;DHT22;12802;53.390;-2.328;2023-05-19T13:04:20;15.70;99.90
24682;DHT22;12802;53.390;-2.328;2023-05-19T13:06:46;15.60;99.90
24682;DHT22;12802;53.390;-2.328;2023-05-19T13:09:14;15.50;99.90
24682;DHT22;12802;53.390;-2.328;2023-05-19T13:11:40;15.40;99.90
24682;DHT22;12802;53.390;-2.328;2023-05-19T13:14:08;15.40;99.90
24682;DHT22;12802;53.390;-2.328;2023-05-19T13:16:34;15.30;99.90
24682;DHT22;12802;53.390;-2.328;2023-05-19T13:18:59;15.20;99.90
24682;DHT22;12802;53.390;-2.328;2023-05-19T13:21:25;15.10;99.90
24682;DHT22;12802;53.390;-2.328;2023-05-19T13:23:50;15.10;99.90
24682;DHT22;12802;53.390;-2.328;2023-05-19T13:26:17;15.10;99.90
24682;DHT22;12802;53.390;-2.328;2023-05-19T13:28:43;15.10;99.90
24682;DHT22;12802;53.390;-2.328;2023-05-19T13:31:08;15.10;99.90
24682;DHT22;12802;53.390;-2.328;2023-05-19T13:33:34;15.10;99.90
24682;DHT22;12802;53.390;-2.328;2023-05-19T13:36:00;15.10;99.90
24682;DHT22;12802;53.390;-2.328;2023-05-19T13:38:26;15.60;99.90
24682;DHT22;12802;53.390;-2.328;2023-05-19T13:40:51;16.00;99.90
24682;DHT22;12802;53.390;-2.328;2023-05-19T13:43:17;16.10;99.90
24682;DHT22;12802;53.390;-2.328;2023-05-19T13:45:42;16.00;99.90
24682;DHT22;12802;53.390;-2.328;2023-05-19T13:48:08;16.10;99.90
24682;DHT22;12802;53.390;-2.328;2023-05-19T13:50:36;16.30;99.90
24682;DHT22;12802;53.390;-2.328;2023-05-19T13:53:01;17.20;99.90
24682;DHT22;12802;53.390;-2.328;2023-05-19T13:55:28;17.90;99.90
24682;DHT22;12802;53.390;-2.328;2023-05-19T13:57:53;17.70;99.90
24682;DHT22;12802;53.390;-2.328;2023-05-19T14:00:19;17.20;99.90
24682;DHT22;12802;53.390;-2.328;2023-05-19T14:02:45;16.50;99.90
24682;DHT22;12802;53.390;-2.328;2023-05-19T14:05:11;16.30;99.90
24682;DHT22;12802;53.390;-2.328;2023-05-19T14:07:36;16.10;99.90
24682;DHT22;12802;53.390;-2.328;2023-05-19T14:10:03;15.90;99.90
24682;DHT22;12802;53.390;-2.328;2023-05-19T14:12:32;15.80;99.90
24682;DHT22;12802;53.390;-2.328;2023-05-19T14:14:59;15.70;99.90
24682;DHT22;12802;53.390;-2.328;2023-05-19T14:17:25;15.70;99.90
24682;DHT22;12802;53.390;-2.328;2023-05-19T14:19:51;15.60;99.90
24682;DHT22;12802;53.390;-2.328;2023-05-19T14:22:17;15.70;99.90
24682;DHT22;12802;53.390;-2.328;2023-05-19T14:24:44;15.70;99.90
24682;DHT22;12802;53.390;-2.328;2023-05-19T14:27:09;15.70;99.90
24682;DHT22;12802;53.390;-2.328;2023-05-19T14:29:35;15.60;99.90
24682;DHT22;12802;53.390;-2.328;2023-05-19T14:32:01;15.50;99.90
24682;DHT22;12802;53.390;-2.328;2023-05-19T14:34:27;15.50;99.90
24682;DHT22;12802;53.390;-2.328;2023-05-19T14:36:52;15.60;99.90
24682;DHT22;12802;53.390;-2.328;2023-05-19T14:39:18;15.70;99.90
24682;DHT22;12802;53.390;-2.328;2023-05-19T14:41:44;15.80;99.90
24682;DHT22;12802;53.390;-2.328;2023-05-19T14:44:10;15.80;99.90
24682;DHT22;12802;53.390;-2.328;2023-05-19T14:46:35;15.80;99.90
24682;DHT22;12802;53.390;-2.328;2023-05-19T14:49:01;15.80;99.90
24682;DHT22;12802;53.390;-2.328;2023-05-19T14:51:27;16.00;99.90
24682;DHT22;12802;53.390;-2.328;2023-05-19T14:53:53;16.10;99.90
24682;DHT22;12802;53.390;-2.328;2023-05-19T14:56:18;16.10;99.90
24682;DHT22;12802;53.390;-2.328;2023-05-19T14:58:44;16.10;99.90
24682;DHT22;12802;53.390;-2.328;2023-05-19T15:01:09;16.10;99.90
24682;DHT22;12802;53.390;-2.328;2023-05-19T15:03:35;16.20;99.90
24682;DHT22;12802;53.390;-2.328;2023-05-19T15:06:01;16.20;99.90
24682;DHT22;12802;53.390;-2.328;2023-05-19T15:08:26;16.20;99.90
24682;DHT22;12802;53.390;-2.328;2023-05-19T15:10:52;16.20;99.90
24682;DHT22;12802;53.390;-2.328;2023-05-19T15:13:17;16.20;99.90
24682;DHT22;12802;53.390;-2.328;2023-05-19T15:15:43;16.70;99.90
24682;DHT22;12802;53.390;-2.328;2023-05-19T15:18:10;16.90;99.90
24682;DHT22;12802;53.390;-2.328;2023-05-19T15:20:35;17.10;99.90
24682;DHT22;12802;53.390;-2.328;2023-05-19T15:23:01;17.00;99.90
24682;DHT22;12802;53.390;-2.328;2023-05-19T15:25:27;16.90;99.90
24682;DHT22;12802;53.390;-2.328;2023-05-19T15:27:52;16.80;99.90
24682;DHT22;12802;53.390;-2.328;2023-05-19T15:30:18;17.60;99.90
24682;DHT22;12802;53.390;-2.328;2023-05-19T15:32:43;18.30;99.90
24682;DHT22;12802;53.390;-2.328;2023-05-19T15:35:09;18.50;99.90